Flight Track Log - Related Links

Times and Time Zones

All times are in EDT time to prevent confusion due to time zone crossing. See the GJS3707 flight status page for this flight to view local times or setup timezone preferences in your user account.

Time Position Orientation Groundspeed Altitude Reporting Facility
EDT Latitude Longitude Course Direction KTS MPH feet Rate Location/Type
Mon 05:13:00 PM 43.6542 -115.5813 78° East  Level FlightAware Approximate
Mon 05:14:00 PM 43.6741 -115.4186 83° East  Level FlightAware Approximate
Mon 05:15:00 PM 43.6922 -115.2569 65° Northeast  Level FlightAware Approximate
Mon 05:15:11 PM 43.7128 -115.9375 82° East 327 376 13,700  Level Salt Lake Center
Mon 05:16:00 PM 43.7154 -115.0956 81° East  Level FlightAware Approximate
Mon 05:16:12 PM 43.7303 -115.7867 81° East 351 404 15,700  Level Salt Lake Center
Mon 05:17:00 PM 43.7335 -114.9322 76° East  Level FlightAware Approximate
Mon 05:17:14 PM 43.7472 -115.6483 80° East 374 430 17,500  Level Salt Lake Center
Mon 05:18:00 PM 43.7620 -114.7716 76° East  Level FlightAware Approximate
Mon 05:18:16 PM 43.7656 -115.4844 81° East 386 444 19,700  Level Salt Lake Center
Mon 05:19:00 PM 43.7876 -114.6102 82° East  Level FlightAware Approximate
Mon 05:19:17 PM 43.7806 -115.3425 82° East 389 448 21,400  Level Salt Lake Center
Mon 05:20:00 PM 43.8049 -114.4464 82° East  Level FlightAware Approximate
Mon 05:20:19 PM 43.7981 -115.1925 81° East 411 473 22,400  Level Salt Lake Center
Mon 05:21:21 PM 43.8192 -115.0067 81° East 441 507 23,500 1,024 Climbing Salt Lake Center
Mon 05:22:22 PM 43.8383 -114.8372 81° East 463 533 24,500 1,073 Climbing Salt Lake Center
Mon 05:23:24 PM 43.8597 -114.6336 82° East 479 551 25,700 1,113 Climbing Salt Lake Center
Mon 05:24:26 PM 43.8789 -114.4564 81° East 485 558 26,800 1,113 Climbing Salt Lake Center
Mon 05:25:28 PM 43.9008 -114.2467 82° East 493 567 28,000 1,122 Climbing Salt Lake Center
Mon 05:26:29 PM 43.9203 -114.0661 81° East 496 571 29,100 1,073 Climbing Salt Lake Center
Mon 05:27:31 PM 43.9389 -113.8728 82° East 494 568 30,200 1,065 Climbing Salt Lake Center
Mon 05:28:33 PM 43.9561 -113.6919 82° East 494 568 31,300 919 Climbing Salt Lake Center
Mon 05:29:35 PM 43.9742 -113.4800 83° East 494 568 32,100 732 Climbing Salt Lake Center
Mon 05:30:36 PM 43.9928 -113.2972 82° East 498 573 32,800 829 Climbing Salt Lake Center
Mon 05:31:38 PM 44.0128 -113.0836 83° East 501 577 33,800 919 Climbing Salt Lake Center
Mon 05:32:40 PM 44.0289 -112.9022 83° East 495 570 34,700 581 Climbing Salt Lake Center
Mon 05:33:42 PM 44.0478 -112.6894 83° East 499 574 35,000 145 Climbing Salt Lake Center
Mon 05:34:44 PM 44.0650 -112.5044 83° East 505 581 35,000  Level Salt Lake Center
Mon 05:35:45 PM 44.0814 -112.2847 84° East 513 590 35,000  Level Salt Lake Center
Mon 05:36:47 PM 44.0894 -112.0964 87° East 510 587 35,000  Level Salt Lake Center
Mon 05:37:49 PM 44.0922 -111.8806 89° East 504 580 35,000  Level Salt Lake Center
Mon 05:38:51 PM 44.0933 -111.6944 89° East 505 581 35,000  Level Salt Lake Center
Mon 05:39:53 PM 44.0939 -111.4786 90° East 505 581 35,000  Level Salt Lake Center
Mon 05:40:55 PM 44.0953 -111.2922 89° East 506 582 35,000  Level Salt Lake Center
Mon 05:41:57 PM 44.0942 -111.0744 90° East 508 585 35,000  Level Salt Lake Center
Mon 05:42:58 PM 44.0942 -110.8864 90° East 510 587 35,000  Level Salt Lake Center
Mon 05:44:00 PM 44.0942 -110.6656 90° East 513 590 35,000  Level Salt Lake Center
Mon 05:45:02 PM 44.0931 -110.4744 90° East 517 595 35,000  Level Salt Lake Center
Mon 05:46:04 PM 44.0933 -110.2822 90° East 519 597 35,000  Level Salt Lake Center
Mon 05:47:06 PM 44.0900 -110.0594 91° East 516 594 35,000  Level Salt Lake Center
Mon 05:48:08 PM 44.0881 -109.8642 91° East 524 603 35,000  Level Salt Lake Center
Mon 05:49:09 PM 44.0856 -109.6367 91° East 527 606 35,000  Level Salt Lake Center
Mon 05:50:11 PM 44.0833 -109.4453 91° East 533 613 35,000  Level Salt Lake Center
Mon 05:51:13 PM 44.0797 -109.2158 91° East 533 613 35,000  Level Salt Lake Center
Mon 05:52:15 PM 44.0761 -109.0158 91° East 541 623 35,000  Level Salt Lake Center
Mon 05:53:17 PM 44.0708 -108.7833 92° East 541 623 35,000  Level Salt Lake Center
Mon 05:54:18 PM 44.0667 -108.5844 92° East 541 623 35,000  Level Salt Lake Center
Mon 05:55:20 PM 44.0617 -108.3517 92° East 542 624 35,000  Level Salt Lake Center
Mon 05:56:22 PM 44.0567 -108.1522 92° East 542 624 35,000  Level Salt Lake Center
Mon 05:57:24 PM 44.0508 -107.9225 92° East 537 618 35,000  Level Salt Lake Center
Mon 05:58:26 PM 44.0444 -107.7228 92° East 541 623 35,000  Level Salt Lake Center
Mon 05:59:27 PM 44.0372 -107.4906 92° East 542 624 35,000  Level Salt Lake Center
Mon 06:00:29 PM 44.0317 -107.2936 92° East 538 619 35,000  Level Salt Lake Center
Mon 06:01:31 PM 44.0228 -107.0642 93° East 536 617 35,000  Level Salt Lake Center
Mon 06:01:52 PM 44.0217 -106.9997 91° East 532 612 35,000  Level Denver Center
Mon 06:02:32 PM 44.0158 -106.8683 93° East 535 616 35,000  Level Salt Lake Center
Mon 06:03:34 PM 44.0100 -106.6714 92° East 536 617 35,000  Level Salt Lake Center
Mon 06:03:56 PM 44.0061 -106.5678 93° East 540 621 35,000  Level Denver Center
Mon 06:04:58 PM 43.9997 -106.3692 92° East 538 619 35,000  Level Denver Center
Mon 06:05:38 PM 44.0003 -106.2381 90° East 543 625 35,000  Level Salt Lake Center
Mon 06:06:39 PM 44.0056 -105.9964 88° East 551 634 35,000  Level Salt Lake Center
Mon 06:07:02 PM 44.0047 -105.9303 91° East 547 629 35,000  Level Denver Center
Mon 06:08:04 PM 44.0058 -105.7283 89° East 546 628 35,000  Level Denver Center
Mon 06:09:06 PM 44.0047 -105.4936 90° East 545 627 35,000  Level Denver Center
Mon 06:10:08 PM 44.0044 -105.2944 90° East 541 623 35,000  Level Denver Center
Mon 06:11:10 PM 44.0039 -105.0619 90° East 538 619 35,000  Level Denver Center
Mon 06:12:23 PM 44.0022 -104.8647 91° East 535 616 35,000  Level Denver Center
Mon 06:13:26 PM 44.0003 -104.6036 91° East 529 609 35,000  Level Denver Center
Mon 06:14:28 PM 43.9986 -104.4094 91° East 526 605 35,000  Level Denver Center
Mon 06:15:29 PM 43.9961 -104.2497 91° East 519 597 35,000  Level Denver Center
Mon 06:16:32 PM 43.9939 -103.9917 91° East 522 601 35,000  Level Denver Center
Mon 06:17:45 PM 43.9917 -103.7697 91° East 515 593 35,000  Level Denver Center
Mon 06:18:48 PM 43.9867 -103.5467 92° East 517 595 35,000  Level Denver Center
Mon 06:19:50 PM 43.9836 -103.3256 91° East 514 592 35,000  Level Denver Center
Mon 06:20:52 PM 43.9806 -103.1364 91° East 512 589 35,000  Level Denver Center
Mon 06:21:54 PM 43.9767 -102.9161 91° East 511 588 35,000  Level Denver Center
Mon 06:22:56 PM 43.9706 -102.7453 93° East 513 590 35,000  Level Denver Center
Mon 06:23:57 PM 43.9619 -102.5089 93° East 513 590 35,000  Level Denver Center
Mon 06:24:59 PM 43.9544 -102.3103 93° East 514 592 35,000  Level Denver Center
Mon 06:26:01 PM 43.9467 -102.1128 93° East 514 592 35,000  Level Denver Center
Mon 06:27:03 PM 43.9394 -101.9153 93° East 514 592 35,000  Level Denver Center
Mon 06:28:05 PM 43.9319 -101.7186 93° East 513 590 35,000  Level Denver Center
Mon 06:29:07 PM 43.9294 -101.5258 91° East 508 585 35,000  Level Denver Center
Mon 06:29:30 PM 43.9242 -101.4478 95° East 511 588 35,000  Level Minneapolis Center
Mon 06:30:09 PM 43.9181 -101.2881 93° East 518 596 35,000  Level Denver Center
Mon 06:30:32 PM 43.9161 -101.2128 92° East 511 588 35,000  Level Minneapolis Center
Mon 06:31:11 PM 43.9111 -101.0908 93° East 515 593 35,000  Level Denver Center
Mon 06:31:34 PM 43.9075 -101.0131 94° East 517 595 35,000  Level Minneapolis Center
Mon 06:32:35 PM 43.8997 -100.8156 93° East 517 595 35,000  Level Minneapolis Center
Mon 06:33:37 PM 43.8911 -100.6197 93° East 514 592 35,000  Level Minneapolis Center
Mon 06:34:39 PM 43.8808 -100.4214 94° East 515 593 35,000  Level Minneapolis Center
Mon 06:35:41 PM 43.8719 -100.2250 94° East 515 593 35,000  Level Minneapolis Center
Mon 06:36:42 PM 43.8631 -100.0331 94° East 507 583 35,000  Level Minneapolis Center
Mon 06:37:44 PM 43.8503 -99.8019 94° East 504 580 35,000  Level Minneapolis Center
Mon 06:38:46 PM 43.8394 -99.6042 94° East 511 588 35,000  Level Minneapolis Center
Mon 06:39:48 PM 43.8281 -99.4125 95° East 506 582 35,000  Level Minneapolis Center
Mon 06:40:50 PM 43.8189 -99.2172 94° East 510 587 35,000  Level Minneapolis Center
Mon 06:41:52 PM 43.8064 -99.0258 95° East 503 579 35,000  Level Minneapolis Center
Mon 06:42:54 PM 43.7956 -98.8319 94° East 506 582 35,000  Level Minneapolis Center
Mon 06:43:55 PM 43.7819 -98.6308 95° East 506 582 35,000  Level Minneapolis Center
Mon 06:44:57 PM 43.7672 -98.4006 95° East 503 579 35,000  Level Minneapolis Center
Mon 06:45:59 PM 43.7542 -98.2086 95° East 504 580 35,000  Level Minneapolis Center
Mon 06:47:01 PM 43.7417 -98.0175 95° East 502 578 35,000  Level Minneapolis Center
Mon 06:48:03 PM 43.7294 -97.8269 95° East 501 577 35,000  Level Minneapolis Center
Mon 06:49:05 PM 43.7150 -97.6358 96° East 502 578 35,000  Level Minneapolis Center
Mon 06:50:07 PM 43.7000 -97.4467 96° East 500 575 35,000  Level Minneapolis Center
Mon 06:51:09 PM 43.6836 -97.2178 96° East 503 579 35,000  Level Minneapolis Center
Mon 06:52:11 PM 43.6689 -97.0289 96° East 499 574 35,000  Level Minneapolis Center
Mon 06:53:12 PM 43.6539 -96.8400 96° East 498 573 35,000  Level Minneapolis Center
Mon 06:54:14 PM 43.6319 -96.6558 99° East 493 567 35,000  Level Minneapolis Center
Mon 06:55:16 PM 43.6042 -96.4700 102° East 496 571 35,000  Level Minneapolis Center
Mon 06:56:18 PM 43.5761 -96.2842 102° East 498 573 35,000  Level Minneapolis Center
Mon 06:57:20 PM 43.5431 -96.0617 102° East 499 574 35,000  Level Minneapolis Center
Mon 06:58:22 PM 43.5161 -95.8778 101° East 496 571 35,000  Level Minneapolis Center
Mon 06:59:25 PM 43.4875 -95.6950 102° East 493 567 35,000  Level Minneapolis Center
Mon 07:00:27 PM 43.4592 -95.5122 102° East 493 567 35,000  Level Minneapolis Center
Mon 07:01:29 PM 43.4300 -95.3311 102° East 490 564 35,000  Level Minneapolis Center
Mon 07:02:31 PM 43.3950 -95.1106 102° East 493 567 35,000  Level Minneapolis Center
Mon 07:03:33 PM 43.3658 -94.9247 102° East 498 573 35,000  Level Minneapolis Center
Mon 07:04:35 PM 43.3375 -94.7400 102° East 497 572 35,000  Level Minneapolis Center
Mon 07:05:37 PM 43.3078 -94.5564 102° East 496 571 35,000  Level Minneapolis Center
Mon 07:06:39 PM 43.2758 -94.3742 103° East 493 567 35,000  Level Minneapolis Center
Mon 07:07:41 PM 43.2436 -94.1778 103° East 496 571 35,000  Level Minneapolis Center
Mon 07:08:43 PM 43.2114 -93.9975 104° East 493 567 35,000  Level Minneapolis Center
Mon 07:09:45 PM 43.1800 -93.8158 103° East 495 570 35,000  Level Minneapolis Center
Mon 07:10:47 PM 43.1408 -93.5986 104° East 494 568 35,000  Level Minneapolis Center
Mon 07:11:49 PM 43.1094 -93.4167 103° East 496 571 35,000  Level Minneapolis Center
Mon 07:12:51 PM 43.0875 -93.2319 99° East 495 570 35,000  Level Minneapolis Center
Mon 07:13:53 PM 43.0764 -93.0444 95° East 498 573 35,000  Level Minneapolis Center
Mon 07:14:55 PM 43.0633 -92.8578 95° East 500 575 35,000  Level Minneapolis Center
Mon 07:15:57 PM 43.0483 -92.6339 95° East 497 572 35,000 -156 Level Minneapolis Center
Mon 07:16:12 PM 43.0439 -92.5969 99° East 497 572 34,800 -857 Descending Chicago Center
Mon 07:17:14 PM 43.0303 -92.4067 96° East 506 582 33,900 -881 Descending Chicago Center
Mon 07:18:01 PM 43.0203 -92.2528 95° East 509 586 33,200 -871 Descending Minneapolis Center
Mon 07:18:16 PM 43.0164 -92.2139 98° East 512 589 33,000 -871 Descending Chicago Center
Mon 07:19:03 PM 43.0064 -92.0600 95° East 512 589 32,300 -774 Descending Minneapolis Center
Mon 07:19:18 PM 43.0025 -92.0228 98° East 510 587 32,200 -857 Descending Chicago Center
Mon 07:20:20 PM 42.9869 -91.7961 95° East 500 575 31,200 -581 Descending Chicago Center
Mon 07:21:22 PM 42.9706 -91.6050 97° East 501 577 31,000 -110 Descending Chicago Center
Mon 07:22:09 PM 42.9594 -91.4506 96° East 502 578 31,000 -55 Level Minneapolis Center
Mon 07:23:11 PM 42.9406 -91.2622 98° East 499 574 30,900 -234 Descending Minneapolis Center
Mon 07:23:26 PM 42.9361 -91.2253 99° East 501 577 30,700 -935 Descending Chicago Center
Mon 07:24:28 PM 42.9033 -91.0378 103° East 511 588 29,700 -968 Descending Chicago Center
Mon 07:25:30 PM 42.8731 -90.8556 103° East 498 573 28,700 -1,065 Descending Chicago Center
Mon 07:26:32 PM 42.8369 -90.6458 103° East 478 550 27,500 -1,065 Descending Chicago Center
Mon 07:27:34 PM 42.8064 -90.4747 104° East 470 541 26,500 -968 Descending Chicago Center
Mon 07:28:36 PM 42.7764 -90.3031 103° East 469 540 25,500 -968 Descending Chicago Center
Mon 07:29:38 PM 42.7464 -90.1311 103° East 471 542 24,500 -726 Descending Chicago Center
Mon 07:30:40 PM 42.7150 -89.9611 104° East 468 539 24,000 -387 Descending Chicago Center
Mon 07:31:42 PM 42.6814 -89.7783 104° East 458 527 23,700 -629 Descending Chicago Center
Mon 07:32:44 PM 42.6517 -89.6106 103° East 457 526 22,700 -1,306 Descending Chicago Center
Mon 07:33:46 PM 42.6153 -89.4175 104° East 454 522 21,000 -1,839 Descending Chicago Center
Mon 07:34:48 PM 42.5850 -89.2517 104° East 452 520 18,900 -2,032 Descending Chicago Center
Mon 07:35:50 PM 42.5539 -89.0947 105° East 436 502 16,800 -2,081 Descending Chicago Center
Mon 07:36:52 PM 42.5106 -88.9511 112° Southeast 415 478 14,600 -2,129 Descending Chicago Center
Mon 07:37:54 PM 42.4706 -88.8136 111° Southeast 395 455 12,400 -1,984 Descending Chicago Center
Mon 07:38:56 PM 42.4258 -88.6686 113° Southeast 360 414 10,500 -1,403 Descending Chicago Center
Mon 07:39:58 PM 42.3936 -88.5608 112° Southeast 325 374 9,500 -968 Descending Chicago Center
Mon 07:41:00 PM 42.3617 -88.4589 113° Southeast 304 350 8,500 -1,016 Descending Chicago Center
Mon 07:42:02 PM 42.3264 -88.3578 115° Southeast 283 326 7,400 -726 Descending Chicago Center
Mon 07:43:04 PM 42.2833 -88.2683 123° Southeast 287 330 7,000 -194 Descending Chicago Center
Mon 07:44:06 PM 42.2242 -88.1958 138° Southeast 288 331 7,000 -339 Level Chicago Center
Mon 07:45:08 PM 42.1681 -88.1319 140° Southeast 273 314 6,300 -968 Descending Chicago Center
Mon 07:46:10 PM 42.1181 -88.0775 141° Southeast 240 276 5,000 -1,355 Descending Chicago Center
Mon 07:47:12 PM 42.0736 -88.0272 140° Southeast 222 255 3,500 -1,595 Descending Chicago Center
Mon 07:47:29 PM 42.0667 -88.0167 132° Southeast 177 204 2,900 -1,403 Descending Chicago TRACON
Mon 07:48:29 PM 42.0333 -87.9833 143° Southeast 127 146 1,700 -1,200 Descending Chicago TRACON

Login

Don't have an account? Register now (free) for customized features, flight alerts, and more!